CheckWX is a tool to help pilots better visualize weather data.  It is not intended as a substitute for an official pre-flight weather briefing.

00:46:07 UTC

GVAC TAF
Amílcar Cabral International Airport
Espargos, Cape Verde
TAF GVAC 132300Z 1400/1506 05005KT 8000 SCT010 BKN015 BECMG 1409/1411 05015KT SCT014 BECMG 1415/1417 35008KT

Jul-14@
00:00 UTC

Jul-14 @ 00:00 UTC

Jul-14@
09:00 UTC

Jul-14 @ 09:00 UTC

TAF GVAC 132300Z 1400/1506 05005KT 8000 SCT010 BKN015

Expired

Wind
  • 050° at 5 KTS
Cloud Levels
  • Scattered at 1,000' AGL
  • Broken at 1,500' AGL

Jul-14@
09:00 UTC

Jul-14 @ 09:00 UTC

Jul-14@
15:00 UTC

Jul-14 @ 15:00 UTC

BECMG 1409/1411 05015KT SCT014

Expired

Wind
  • 050° at 15 KTS
Cloud Levels
  • Scattered at 1,400' AGL

Jul-14@
15:00 UTC

Jul-14 @ 15:00 UTC

Jul-15@
06:00 UTC

Jul-15 @ 06:00 UTC

BECMG 1415/1417 35008KT

Becoming

Becoming Conditions expected by Tue, Jul 14, 2020 @ 17:00 UTC

Wind
  • 350° at 8 KTS
Cloud Levels
  • Scattered at 1,400' AGL